createdAt,value
2022-10-08T00:01:18.844Z,98590.78
2022-10-08T00:03:49.326Z,98587.34
2022-10-08T00:06:22.988Z,98588.31
2022-10-08T00:08:56.225Z,98581.06
2022-10-08T00:11:36.375Z,98578.41
2022-10-08T00:14:05.295Z,98574.53
2022-10-08T00:16:41.287Z,98587.16
2022-10-08T00:19:13.772Z,98585.88
2022-10-08T00:21:44.051Z,98583.59
2022-10-08T00:24:17.293Z,98584.31
2022-10-08T00:26:45.154Z,98591.69
2022-10-08T00:29:15.358Z,98580.91
2022-10-08T00:31:45.333Z,98581.84
2022-10-08T00:34:22.494Z,98582.41
2022-10-08T00:36:55.087Z,98589.78
2022-10-08T00:39:24.611Z,98589.78
2022-10-08T00:41:54.909Z,98588.63
2022-10-08T00:44:55.722Z,98584.53
2022-10-08T00:47:46.148Z,98587.84
2022-10-08T00:50:19.352Z,98583.19
2022-10-08T00:52:55.050Z,98580.41
2022-10-08T00:55:24.491Z,98576.03
2022-10-08T00:57:52.907Z,98573.91
2022-10-08T01:00:25.236Z,98574.53
2022-10-08T01:02:53.369Z,98574.88
2022-10-08T01:05:35.022Z,98573.81
2022-10-08T01:08:32.669Z,98573.13
2022-10-08T01:11:36.710Z,98567.25
2022-10-08T01:14:30.388Z,98562.53
2022-10-08T01:17:32.171Z,98563.41
2022-10-08T01:20:14.038Z,98564.78
2022-10-08T01:23:21.289Z,98567.44
2022-10-08T01:26:21.366Z,98567.69
2022-10-08T01:29:06.261Z,98561.75
2022-10-08T01:31:54.628Z,98568.25
2022-10-08T01:34:37.591Z,98569.50
2022-10-08T01:37:09.873Z,98564.84
2022-10-08T01:39:39.548Z,98571.16
2022-10-08T01:42:08.594Z,98565.59
2022-10-08T01:44:46.431Z,98563.97
2022-10-08T01:47:19.856Z,98562.91
2022-10-08T01:50:04.049Z,98564.84
2022-10-08T01:52:48.295Z,98569.78
2022-10-08T01:55:29.680Z,98567.28
2022-10-08T01:58:02.825Z,98562.38
2022-10-08T02:00:32.186Z,98568.31
2022-10-08T02:02:59.116Z,98559.16
2022-10-08T02:05:30.650Z,98555.06
2022-10-08T02:07:57.795Z,98550.38
2022-10-08T02:10:26.335Z,98549.28
2022-10-08T02:12:53.406Z,98553.44
2022-10-08T02:15:35.265Z,98550.22
2022-10-08T02:18:25.158Z,98550.22
2022-10-08T02:21:09.433Z,98555.88
2022-10-08T02:23:50.113Z,98544.22
2022-10-08T02:26:27.407Z,98552.63
2022-10-08T02:29:10.952Z,98544.84
2022-10-08T02:31:45.672Z,98549.19
2022-10-08T02:34:20.223Z,98547.44
2022-10-08T02:37:08.070Z,98544.78
2022-10-08T02:39:43.562Z,98540.88
2022-10-08T02:42:15.874Z,98537.56
2022-10-08T02:44:47.456Z,98538.06
2022-10-08T02:47:20.698Z,98534.38
2022-10-08T02:49:54.024Z,98539.38
2022-10-08T02:52:23.193Z,98547.59
2022-10-08T02:54:52.987Z,98549.50
2022-10-08T02:57:34.995Z,98550.13
2022-10-08T03:00:03.597Z,98553.00
2022-10-08T03:02:39.788Z,98554.31
2022-10-08T03:05:15.358Z,98550.31
2022-10-08T03:07:43.281Z,98544.78
2022-10-08T03:10:12.145Z,98545.97
2022-10-08T03:12:39.169Z,98542.91
2022-10-08T03:15:11.624Z,98551.63
2022-10-08T03:17:47.347Z,98553.22
2022-10-08T03:20:14.834Z,98557.69
2022-10-08T03:22:41.798Z,98556.00
2022-10-08T03:25:08.981Z,98566.38
2022-10-08T03:27:36.087Z,98563.00
2022-10-08T03:30:04.858Z,98562.53
2022-10-08T03:32:31.778Z,98554.09
2022-10-08T03:34:58.720Z,98563.44
2022-10-08T03:37:25.612Z,98557.84
2022-10-08T03:39:52.642Z,98564.75
2022-10-08T03:42:19.548Z,98562.25
2022-10-08T03:44:46.535Z,98572.94
2022-10-08T03:47:13.456Z,98579.00
2022-10-08T03:49:41.183Z,98588.25
2022-10-08T03:52:08.197Z,98576.94
2022-10-08T03:54:36.363Z,98583.03
2022-10-08T03:57:04.571Z,98592.09
2022-10-08T03:59:31.472Z,98587.03
2022-10-08T04:01:58.427Z,98592.72
2022-10-08T04:04:25.858Z,98600.56
2022-10-08T04:06:52.954Z,98597.19
2022-10-08T04:09:19.922Z,98602.63
2022-10-08T04:11:46.866Z,98605.47
2022-10-08T04:14:13.828Z,98602.56
2022-10-08T04:16:40.790Z,98601.91
2022-10-08T04:19:07.751Z,98600.94
2022-10-08T04:21:34.701Z,98605.06
2022-10-08T04:24:02.302Z,98603.81
2022-10-08T04:26:29.291Z,98607.91
2022-10-08T04:28:56.242Z,98610.81
2022-10-08T04:31:23.635Z,98613.19
2022-10-08T04:33:51.980Z,98608.38
2022-10-08T04:36:24.724Z,98615.50
2022-10-08T04:38:51.958Z,98616.69
2022-10-08T04:41:25.648Z,98615.47
2022-10-08T04:43:54.623Z,98619.59
2022-10-08T04:46:22.995Z,98619.97
2022-10-08T04:48:53.434Z,98623.47
2022-10-08T04:51:23.229Z,98628.91
2022-10-08T04:53:51.493Z,98625.09
2022-10-08T04:56:38.662Z,98625.47
2022-10-08T04:59:05.665Z,98625.09
2022-10-08T05:01:32.635Z,98628.88
2022-10-08T05:04:00.329Z,98633.34
2022-10-08T05:06:30.102Z,98624.22
2022-10-08T05:09:02.483Z,98622.81
2022-10-08T05:11:30.252Z,98626.16
2022-10-08T05:13:58.509Z,98636.78
2022-10-08T05:16:26.506Z,98634.78
2022-10-08T05:18:53.867Z,98635.22
2022-10-08T05:21:29.788Z,98638.22
2022-10-08T05:24:03.944Z,98639.50
2022-10-08T05:26:57.051Z,98642.97
2022-10-08T05:29:22.516Z,98653.09
2022-10-08T05:31:49.445Z,98642.69
2022-10-08T05:34:16.427Z,98643.84
2022-10-08T05:36:43.424Z,98642.34
2022-10-08T05:39:10.729Z,98640.22
2022-10-08T05:41:37.677Z,98652.22
2022-10-08T05:44:06.051Z,98650.94
2022-10-08T05:46:36.063Z,98658.06
2022-10-08T05:49:07.145Z,98654.81
2022-10-08T05:51:34.571Z,98661.88
2022-10-08T05:54:01.598Z,98663.22
2022-10-08T05:56:29.130Z,98665.25
2022-10-08T05:58:56.133Z,98669.84
2022-10-08T06:01:27.972Z,98663.44
2022-10-08T06:04:07.021Z,98657.22
2022-10-08T06:06:38.645Z,98659.81
2022-10-08T06:09:07.208Z,98671.59
2022-10-08T06:11:36.957Z,98672.88
2022-10-08T06:14:07.021Z,98680.63
2022-10-08T06:16:34.868Z,98684.16
2022-10-08T06:19:03.175Z,98693.91
2022-10-08T06:21:31.053Z,98707.38
2022-10-08T06:24:00.928Z,98699.06
2022-10-08T06:26:35.707Z,98707.69
2022-10-08T06:29:05.844Z,98705.22
2022-10-08T06:31:34.809Z,98710.25
2022-10-08T06:34:04.114Z,98695.88
2022-10-08T06:36:33.324Z,98695.53
2022-10-08T06:39:05.627Z,98699.41
2022-10-08T06:41:35.532Z,98696.94
2022-10-08T06:44:05.273Z,98702.94
2022-10-08T06:46:33.318Z,98700.28
2022-10-08T06:49:02.499Z,98695.69
2022-10-08T06:51:30.513Z,98708.84
2022-10-08T06:54:05.751Z,98709.78
2022-10-08T06:56:35.638Z,98710.41
2022-10-08T06:59:02.590Z,98712.97
2022-10-08T07:01:33.404Z,98714.16
2022-10-08T07:04:02.054Z,98726.56
2022-10-08T07:06:29.480Z,98713.69
2022-10-08T07:08:59.513Z,98724.34
2022-10-08T07:11:28.202Z,98730.72
2022-10-08T07:13:56.323Z,98730.00
2022-10-08T07:16:25.758Z,98733.28
2022-10-08T07:18:54.429Z,98742.28
2022-10-08T07:21:22.718Z,98741.72
2022-10-08T07:23:50.382Z,98742.56
2022-10-08T07:26:23.853Z,98742.50
2022-10-08T07:28:58.165Z,98746.69
2022-10-08T07:31:37.376Z,98752.84
2022-10-08T07:34:08.567Z,98761.50
2022-10-08T07:36:35.611Z,98763.75
2022-10-08T07:39:06.981Z,98760.81
2022-10-08T07:41:34.821Z,98763.94
2022-10-08T07:44:03.540Z,98770.59
2022-10-08T07:46:33.745Z,98771.53
2022-10-08T07:49:01.676Z,98779.19
2022-10-08T07:51:31.505Z,98777.78
2022-10-08T07:54:02.736Z,98777.72
2022-10-08T07:56:30.794Z,98773.84
2022-10-08T07:58:59.688Z,98774.03
2022-10-08T08:01:29.672Z,98770.78
2022-10-08T08:04:02.911Z,98776.13
2022-10-08T08:06:32.200Z,98776.84
2022-10-08T08:09:01.200Z,98784.53
2022-10-08T08:11:28.927Z,98784.59
2022-10-08T08:13:56.099Z,98793.06
2022-10-08T08:16:25.792Z,98793.63
2022-10-08T08:18:58.500Z,98795.94
2022-10-08T08:21:31.076Z,98792.50
2022-10-08T08:24:02.047Z,98791.03
2022-10-08T08:26:35.660Z,98787.31
2022-10-08T08:29:06.155Z,98795.72
2022-10-08T08:31:40.296Z,98798.88
2022-10-08T08:34:10.331Z,98795.75
2022-10-08T08:36:39.906Z,98797.78
2022-10-08T08:39:09.014Z,98798.53
2022-10-08T08:42:07.721Z,98798.28
2022-10-08T08:44:38.586Z,98806.00
2022-10-08T08:47:18.062Z,98793.97
2022-10-08T08:49:52.494Z,98797.97
2022-10-08T08:52:22.694Z,98802.84
2022-10-08T08:54:51.395Z,98804.75
2022-10-08T08:57:42.122Z,98808.69
2022-10-08T09:00:30.147Z,98804.25
2022-10-08T09:03:03.493Z,98812.94
2022-10-08T09:05:33.749Z,98805.25
2022-10-08T09:08:19.750Z,98803.50
2022-10-08T09:10:59.984Z,98821.59
2022-10-08T09:13:49.270Z,98821.59
2022-10-08T09:16:17.438Z,98823.06
2022-10-08T09:18:50.326Z,98817.56
2022-10-08T09:21:18.554Z,98820.72
2022-10-08T09:23:46.482Z,98820.03
2022-10-08T09:26:45.885Z,98807.94
2022-10-08T09:29:33.620Z,98811.50
2022-10-08T09:32:00.594Z,98825.66
2022-10-08T09:34:27.604Z,98817.78
2022-10-08T09:37:06.391Z,98816.63
2022-10-08T09:39:35.772Z,98815.56
2022-10-08T09:42:17.547Z,98815.94
2022-10-08T09:44:45.959Z,98821.00
2022-10-08T09:47:25.219Z,98824.59
2022-10-08T09:50:19.074Z,98820.78
2022-10-08T09:52:50.350Z,98824.47
2022-10-08T09:55:22.940Z,98822.47
2022-10-08T09:57:56.713Z,98820.16
2022-10-08T10:00:35.239Z,98829.69
2022-10-08T10:03:04.891Z,98825.53
2022-10-08T10:05:35.477Z,98819.53
2022-10-08T10:08:03.000Z,98823.03
2022-10-08T10:10:40.579Z,98824.16
2022-10-08T10:13:10.504Z,98825.16
2022-10-08T10:15:45.494Z,98824.75
2022-10-08T10:18:21.553Z,98824.56
2022-10-08T10:20:58.611Z,98819.56
2022-10-08T10:23:37.232Z,98831.00
2022-10-08T10:26:21.769Z,98826.50
2022-10-08T10:28:55.049Z,98834.91
2022-10-08T10:31:36.819Z,98825.50
2022-10-08T10:34:15.608Z,98830.28
2022-10-08T10:36:53.972Z,98821.41
2022-10-08T10:39:21.921Z,98829.50
2022-10-08T10:41:57.878Z,98822.28
2022-10-08T10:44:49.813Z,98816.38
2022-10-08T10:47:20.146Z,98811.97
2022-10-08T10:49:47.458Z,98817.66
2022-10-08T10:52:34.565Z,98818.53
2022-10-08T10:55:23.500Z,98822.22
2022-10-08T10:58:06.173Z,98820.09
2022-10-08T11:00:58.235Z,98817.84
2022-10-08T11:03:37.479Z,98823.66
2022-10-08T11:06:29.051Z,98828.16
2022-10-08T11:09:12.562Z,98821.09
2022-10-08T11:11:57.512Z,98825.41
2022-10-08T11:14:37.318Z,98821.59
2022-10-08T11:17:23.766Z,98816.16
2022-10-08T11:20:14.717Z,98814.53
2022-10-08T11:23:03.573Z,98819.59
2022-10-08T11:25:56.015Z,98817.91
2022-10-08T11:29:15.681Z,98817.41
2022-10-08T11:31:51.241Z,98813.81
2022-10-08T11:34:34.215Z,98821.31
2022-10-08T11:37:08.943Z,98829.50
2022-10-08T11:40:01.996Z,98823.06
2022-10-08T11:42:40.183Z,98826.44
2022-10-08T11:45:29.188Z,98829.28
2022-10-08T11:47:58.478Z,98836.50
2022-10-08T11:50:35.058Z,98830.06
2022-10-08T11:53:15.131Z,98829.44
2022-10-08T11:55:55.088Z,98828.09
2022-10-08T11:58:28.941Z,98827.84
2022-10-08T12:01:08.357Z,98824.88
2022-10-08T12:03:40.170Z,98830.50
2022-10-08T12:06:29.648Z,98833.41
2022-10-08T12:08:59.259Z,98827.16
2022-10-08T12:11:32.195Z,98827.66
2022-10-08T12:14:13.902Z,98824.53
2022-10-08T12:16:56.352Z,98817.25
2022-10-08T12:19:38.162Z,98815.53
2022-10-08T12:22:27.933Z,98811.03
2022-10-08T12:24:59.249Z,98814.75
2022-10-08T12:27:39.177Z,98821.84
2022-10-08T12:30:16.736Z,98821.97
2022-10-08T12:32:44.202Z,98823.16
2022-10-08T12:35:40.625Z,98826.53
2022-10-08T12:38:16.752Z,98815.72
2022-10-08T12:40:52.463Z,98816.19
2022-10-08T12:43:45.822Z,98820.56
2022-10-08T12:46:27.377Z,98817.03
2022-10-08T12:49:20.525Z,98816.78
2022-10-08T12:52:10.424Z,98819.75
2022-10-08T12:54:40.279Z,98825.03
2022-10-08T12:57:12.683Z,98816.16
2022-10-08T12:59:41.525Z,98815.66
2022-10-08T13:02:38.843Z,98822.03
2022-10-08T13:05:22.027Z,98831.56
2022-10-08T13:07:50.001Z,98828.63
2022-10-08T13:10:21.175Z,98836.84
2022-10-08T13:13:05.982Z,98829.50
2022-10-08T13:15:34.515Z,98827.16
2022-10-08T13:18:20.055Z,98817.19
2022-10-08T13:21:01.700Z,98821.81
2022-10-08T13:23:36.297Z,98819.06
2022-10-08T13:26:03.766Z,98828.22
2022-10-08T13:28:59.036Z,98827.22
2022-10-08T13:31:24.109Z,98825.97
2022-10-08T13:33:51.626Z,98826.75
2022-10-08T13:36:23.572Z,98826.38
2022-10-08T13:38:51.059Z,98825.31
2022-10-08T13:41:23.822Z,98836.41
2022-10-08T13:43:51.432Z,98833.56
2022-10-08T13:46:18.801Z,98826.22
2022-10-08T13:48:46.211Z,98836.13
2022-10-08T13:51:13.513Z,98839.44
2022-10-08T13:53:45.382Z,98835.59
2022-10-08T13:56:12.797Z,98836.09
2022-10-08T13:58:40.243Z,98842.63
2022-10-08T14:01:07.708Z,98845.66
2022-10-08T14:03:35.203Z,98841.28
2022-10-08T14:06:02.545Z,98830.22
2022-10-08T14:08:31.384Z,98834.09
2022-10-08T14:10:58.993Z,98844.47
2022-10-08T14:13:26.717Z,98844.47
2022-10-08T14:15:54.174Z,98841.59
2022-10-08T14:18:21.602Z,98845.22
2022-10-08T14:20:50.880Z,98837.03
2022-10-08T14:23:19.169Z,98837.19
2022-10-08T14:25:46.910Z,98845.38
2022-10-08T14:28:14.296Z,98841.25
2022-10-08T14:30:41.647Z,98838.50
2022-10-08T14:33:11.425Z,98851.41
2022-10-08T14:35:39.202Z,98841.31
2022-10-08T14:38:06.550Z,98839.06
2022-10-08T14:40:34.055Z,98842.50
2022-10-08T14:43:01.467Z,98843.03
2022-10-08T14:45:28.779Z,98842.81
2022-10-08T14:47:56.102Z,98843.59
2022-10-08T14:50:23.528Z,98844.19
2022-10-08T14:52:51.327Z,98845.22
2022-10-08T14:55:19.326Z,98844.38
2022-10-08T14:57:46.594Z,98844.16
2022-10-08T15:00:14.682Z,98843.47
2022-10-08T15:02:41.998Z,98852.78
2022-10-08T15:05:09.456Z,98853.63
2022-10-08T15:07:36.843Z,98854.94
2022-10-08T15:10:05.411Z,98854.94
2022-10-08T15:12:32.844Z,98852.41
2022-10-08T15:15:00.143Z,98854.94
2022-10-08T15:17:27.492Z,98852.59
2022-10-08T15:19:54.881Z,98852.69
2022-10-08T15:22:22.198Z,98851.88
2022-10-08T15:24:49.481Z,98847.22
2022-10-08T15:27:20.609Z,98851.34
2022-10-08T15:29:48.373Z,98852.91
2022-10-08T15:32:15.939Z,98847.88
2022-10-08T15:34:43.289Z,98851.25
2022-10-08T15:37:10.642Z,98856.38
2022-10-08T15:39:37.958Z,98863.38
2022-10-08T15:42:05.345Z,98876.91
2022-10-08T15:44:32.823Z,98870.88
2022-10-08T15:47:11.501Z,98872.25
2022-10-08T15:49:40.301Z,98867.63
2022-10-08T15:52:16.422Z,98879.81
2022-10-08T15:54:44.726Z,98882.69
2022-10-08T15:57:13.919Z,98880.97
2022-10-08T15:59:41.327Z,98896.63
2022-10-08T16:02:15.552Z,98891.72
2022-10-08T16:04:45.002Z,98891.50
2022-10-08T16:07:12.313Z,98900.22
2022-10-08T16:09:39.620Z,98901.78
2022-10-08T16:12:06.978Z,98896.16
2022-10-08T16:14:34.356Z,98904.75
2022-10-08T16:17:02.958Z,98904.44
2022-10-08T16:19:30.510Z,98910.63
2022-10-08T16:21:58.780Z,98904.75
2022-10-08T16:24:26.488Z,98914.13
2022-10-08T16:26:53.925Z,98913.31
2022-10-08T16:29:21.263Z,98915.56
2022-10-08T16:31:49.287Z,98908.97
2022-10-08T16:34:18.900Z,98919.19
2022-10-08T16:36:48.246Z,98914.38
2022-10-08T16:39:18.229Z,98927.53
2022-10-08T16:41:46.078Z,98930.84
2022-10-08T16:44:15.360Z,98931.00
2022-10-08T16:46:50.126Z,98931.78
2022-10-08T16:49:26.259Z,98933.06
2022-10-08T16:51:59.082Z,98935.56
2022-10-08T16:54:27.079Z,98928.63
2022-10-08T16:56:54.499Z,98944.81
2022-10-08T16:59:24.300Z,98947.78
2022-10-08T17:01:54.169Z,98948.50
2022-10-08T17:04:23.502Z,98957.72
2022-10-08T17:06:51.095Z,98958.94
2022-10-08T17:09:19.138Z,98955.59
2022-10-08T17:11:46.614Z,98964.06
2022-10-08T17:14:14.317Z,98963.28
2022-10-08T17:16:43.481Z,98967.84
2022-10-08T17:19:11.486Z,98965.69
2022-10-08T17:21:39.089Z,98978.25
2022-10-08T17:24:07.335Z,98979.44
2022-10-08T17:26:35.014Z,98983.75
2022-10-08T17:29:11.347Z,98989.56
2022-10-08T17:31:39.576Z,98992.66
2022-10-08T17:34:07.531Z,99000.59
2022-10-08T17:36:37.457Z,98995.94
2022-10-08T17:39:08.208Z,98998.19
2022-10-08T17:41:37.933Z,99002.44
2022-10-08T17:44:07.450Z,98999.91
2022-10-08T17:46:40.614Z,99010.78
2022-10-08T17:49:08.135Z,99008.91
2022-10-08T17:51:35.522Z,99012.47
2022-10-08T17:54:05.197Z,99016.75
2022-10-08T17:56:33.342Z,99016.25
2022-10-08T17:59:00.950Z,99020.56
2022-10-08T18:01:34.126Z,99016.13
2022-10-08T18:04:06.141Z,99026.00
2022-10-08T18:06:35.343Z,99025.56
2022-10-08T18:09:06.385Z,99038.19
2022-10-08T18:11:36.353Z,99036.31
2022-10-08T18:14:04.404Z,99037.53
2022-10-08T18:16:32.421Z,99038.19
2022-10-08T18:19:01.821Z,99043.78
2022-10-08T18:21:32.930Z,99040.50
2022-10-08T18:24:00.258Z,99049.84
2022-10-08T18:26:34.486Z,99041.16
2022-10-08T18:29:09.017Z,99050.03
2022-10-08T18:31:37.255Z,99058.28
2022-10-08T18:34:09.850Z,99051.75
2022-10-08T18:36:38.022Z,99055.78
2022-10-08T18:39:14.139Z,99061.50
2022-10-08T18:41:43.898Z,99066.13
2022-10-08T18:44:13.890Z,99067.84
2022-10-08T18:46:44.469Z,99072.03
2022-10-08T18:49:17.119Z,99072.91
2022-10-08T18:51:45.057Z,99077.16
2022-10-08T18:54:12.844Z,99079.16
2022-10-08T18:56:41.397Z,99078.09
2022-10-08T18:59:14.745Z,99083.06
2022-10-08T19:01:45.231Z,99080.94
2022-10-08T19:04:21.075Z,99088.56
2022-10-08T19:06:50.486Z,99083.25
2022-10-08T19:09:18.080Z,99086.25
2022-10-08T19:11:48.043Z,99088.88
2022-10-08T19:14:18.165Z,99100.66
2022-10-08T19:16:45.644Z,99104.59
2022-10-08T19:19:18.410Z,99099.63
2022-10-08T19:21:46.679Z,99099.19
2022-10-08T19:24:16.817Z,99106.13
2022-10-08T19:26:44.995Z,99107.00
2022-10-08T19:29:17.845Z,99107.06
2022-10-08T19:31:47.747Z,99106.84
2022-10-08T19:34:17.554Z,99114.09
2022-10-08T19:36:44.984Z,99116.56
2022-10-08T19:39:14.410Z,99124.84
2022-10-08T19:41:42.625Z,99119.03
2022-10-08T19:44:10.352Z,99123.31
2022-10-08T19:46:37.939Z,99127.78
2022-10-08T19:49:06.940Z,99130.97
2022-10-08T19:51:34.950Z,99140.16
2022-10-08T19:54:03.120Z,99140.75
2022-10-08T19:56:31.185Z,99143.59
2022-10-08T19:58:58.815Z,99145.59
2022-10-08T20:01:33.505Z,99150.44
2022-10-08T20:04:01.929Z,99156.22
2022-10-08T20:06:31.809Z,99159.16
2022-10-08T20:09:01.558Z,99164.28
2022-10-08T20:11:30.546Z,99162.69
2022-10-08T20:13:58.732Z,99166.63
2022-10-08T20:16:31.134Z,99170.69
2022-10-08T20:19:01.164Z,99169.72
2022-10-08T20:21:30.587Z,99174.16
2022-10-08T20:23:58.100Z,99174.69
2022-10-08T20:26:28.215Z,99173.09
2022-10-08T20:28:59.066Z,99178.06
2022-10-08T20:31:35.686Z,99183.91
2022-10-08T20:34:09.954Z,99186.06
2022-10-08T20:36:37.388Z,99185.84
2022-10-08T20:39:05.162Z,99182.75
2022-10-08T20:41:32.899Z,99181.13
2022-10-08T20:44:02.856Z,99186.31
2022-10-08T20:46:31.743Z,99179.69
2022-10-08T20:48:59.491Z,99185.59
2022-10-08T20:51:27.838Z,99184.63
2022-10-08T20:54:06.969Z,99179.06
2022-10-08T20:56:39.452Z,99189.59
2022-10-08T20:59:08.259Z,99190.00
2022-10-08T21:01:38.069Z,99190.31
2022-10-08T21:04:06.813Z,99191.38
2022-10-08T21:06:39.448Z,99187.13
2022-10-08T21:09:07.487Z,99184.56
2022-10-08T21:11:35.378Z,99187.28
2022-10-08T21:14:03.537Z,99196.63
2022-10-08T21:16:36.751Z,99201.19
2022-10-08T21:19:07.204Z,99204.81
2022-10-08T21:21:35.061Z,99191.06
2022-10-08T21:24:02.473Z,99193.25
2022-10-08T21:26:35.063Z,99194.59
2022-10-08T21:29:04.314Z,99194.16
2022-10-08T21:31:33.238Z,99200.00
2022-10-08T21:34:00.720Z,99198.13
2022-10-08T21:36:34.393Z,99194.50
2022-10-08T21:39:03.256Z,99194.25
2022-10-08T21:41:33.285Z,99194.38
2022-10-08T21:44:03.327Z,99198.28
2022-10-08T21:46:32.945Z,99208.03
2022-10-08T21:49:03.104Z,99202.22
2022-10-08T21:51:37.669Z,99205.84
2022-10-08T21:54:06.388Z,99204.41
2022-10-08T21:56:36.358Z,99204.91
2022-10-08T21:59:05.541Z,99210.44
2022-10-08T22:01:35.772Z,99207.94
2022-10-08T22:04:05.070Z,99212.81
2022-10-08T22:06:35.697Z,99213.75
2022-10-08T22:09:04.030Z,99208.63
2022-10-08T22:11:31.408Z,99205.00
2022-10-08T22:13:58.803Z,99208.31
2022-10-08T22:16:26.439Z,99210.03
2022-10-08T22:18:53.857Z,99208.66
2022-10-08T22:21:23.289Z,99201.63
2022-10-08T22:23:52.328Z,99213.44
2022-10-08T22:26:27.139Z,99211.44
2022-10-08T22:28:54.824Z,99199.38
2022-10-08T22:31:22.283Z,99199.75
2022-10-08T22:33:49.926Z,99203.31
2022-10-08T22:36:20.156Z,99200.47
2022-10-08T22:38:48.361Z,99205.72
2022-10-08T22:41:17.502Z,99211.19
2022-10-08T22:43:45.250Z,99200.00
2022-10-08T22:46:20.521Z,99195.13
2022-10-08T22:48:48.321Z,99192.56
2022-10-08T22:51:18.075Z,99197.31
2022-10-08T22:53:46.160Z,99202.38
2022-10-08T22:56:22.058Z,99199.34
2022-10-08T22:58:50.192Z,99206.53
2022-10-08T23:01:19.875Z,99198.81
2022-10-08T23:03:48.118Z,99196.41
2022-10-08T23:06:33.225Z,99199.53
2022-10-08T23:09:03.338Z,99197.53
2022-10-08T23:11:31.914Z,99201.22
2022-10-08T23:14:00.286Z,99205.63
2022-10-08T23:16:29.764Z,99203.47
2022-10-08T23:19:05.711Z,99196.94
2022-10-08T23:21:33.993Z,99198.44
2022-10-08T23:24:01.563Z,99195.38
2022-10-08T23:26:30.450Z,99202.31
2022-10-08T23:28:59.826Z,99197.91
2022-10-08T23:31:29.505Z,99190.94
2022-10-08T23:33:57.465Z,99192.56
2022-10-08T23:36:32.682Z,99195.69
2022-10-08T23:39:00.210Z,99200.41
2022-10-08T23:41:28.062Z,99204.25
2022-10-08T23:43:56.077Z,99200.22
2022-10-08T23:46:25.647Z,99195.13
2022-10-08T23:48:53.729Z,99193.59
2022-10-08T23:51:21.876Z,99188.16
2022-10-08T23:53:50.355Z,99195.25
2022-10-08T23:56:17.816Z,99193.75
2022-10-08T23:58:45.271Z,99192.38
